sensor_id;sensor_type;location;lat;lon;timestamp;pressure;altitude;pressure_sealevel;temperature;humidity
69630;BME280;56857;52.212;5.496;2023-06-01T00:00:01;102522.63;;;11.10;100.00
69630;BME280;56857;52.212;5.496;2023-06-01T00:02:26;102518.53;;;11.06;100.00
69630;BME280;56857;52.212;5.496;2023-06-01T00:04:52;102524.53;;;11.08;100.00
69630;BME280;56857;52.212;5.496;2023-06-01T00:07:17;102520.22;;;11.07;100.00
69630;BME280;56857;52.212;5.496;2023-06-01T00:09:43;102519.25;;;11.08;100.00
69630;BME280;56857;52.212;5.496;2023-06-01T00:12:09;102524.28;;;11.11;100.00
69630;BME280;56857;52.212;5.496;2023-06-01T00:14:35;102518.00;;;11.12;100.00
69630;BME280;56857;52.212;5.496;2023-06-01T00:17:01;102516.59;;;11.08;100.00
69630;BME280;56857;52.212;5.496;2023-06-01T00:19:27;102515.19;;;11.04;100.00
69630;BME280;56857;52.212;5.496;2023-06-01T00:21:53;102509.16;;;11.02;100.00
69630;BME280;56857;52.212;5.496;2023-06-01T00:24:20;102513.75;;;11.00;100.00
69630;BME280;56857;52.212;5.496;2023-06-01T00:26:45;102509.09;;;10.93;100.00
69630;BME280;56857;52.212;5.496;2023-06-01T00:29:11;102514.97;;;10.96;100.00
69630;BME280;56857;52.212;5.496;2023-06-01T00:31:37;102510.50;;;10.97;100.00
69630;BME280;56857;52.212;5.496;2023-06-01T00:34:04;102519.34;;;10.97;100.00
69630;BME280;56857;52.212;5.496;2023-06-01T00:36:30;102522.09;;;10.96;100.00
69630;BME280;56857;52.212;5.496;2023-06-01T00:38:55;102522.34;;;10.93;100.00
69630;BME280;56857;52.212;5.496;2023-06-01T00:41:21;102518.16;;;10.90;100.00
69630;BME280;56857;52.212;5.496;2023-06-01T00:43:46;102520.94;;;10.88;100.00
69630;BME280;56857;52.212;5.496;2023-06-01T00:46:12;102525.28;;;10.89;100.00
69630;BME280;56857;52.212;5.496;2023-06-01T00:48:37;102516.22;;;10.92;100.00
69630;BME280;56857;52.212;5.496;2023-06-01T00:51:04;102520.44;;;10.95;100.00
69630;BME280;56857;52.212;5.496;2023-06-01T00:53:29;102525.06;;;11.02;100.00
69630;BME280;56857;52.212;5.496;2023-06-01T00:55:56;102520.22;;;11.07;100.00
69630;BME280;56857;52.212;5.496;2023-06-01T00:58:22;102524.03;;;11.14;100.00
69630;BME280;56857;52.212;5.496;2023-06-01T01:00:47;102530.31;;;11.13;100.00
69630;BME280;56857;52.212;5.496;2023-06-01T01:03:12;102524.28;;;11.11;100.00
69630;BME280;56857;52.212;5.496;2023-06-01T01:05:39;102534.06;;;11.11;100.00
69630;BME280;56857;52.212;5.496;2023-06-01T01:10:44;102528.28;;;11.06;100.00
69630;BME280;56857;52.212;5.496;2023-06-01T01:16:31;102523.25;;;11.03;100.00
69630;BME280;56857;52.212;5.496;2023-06-01T01:30:36;102517.25;;;11.01;100.00
69630;BME280;56857;52.212;5.496;2023-06-01T01:33:03;102519.75;;;11.02;100.00
69630;BME280;56857;52.212;5.496;2023-06-01T01:35:30;102515.69;;;10.98;100.00
69630;BME280;56857;52.212;5.496;2023-06-01T01:37:56;102521.84;;;10.99;100.00
69630;BME280;56857;52.212;5.496;2023-06-01T01:40:21;102517.63;;;10.96;100.00
69630;BME280;56857;52.212;5.496;2023-06-01T01:42:48;102513.03;;;10.98;100.00
69630;BME280;56857;52.212;5.496;2023-06-01T01:45:15;102519.19;;;10.99;100.00
69630;BME280;56857;52.212;5.496;2023-06-01T01:48:08;102522.63;;;10.89;100.00
69630;BME280;56857;52.212;5.496;2023-06-01T01:50:36;102519.13;;;10.89;100.00
69630;BME280;56857;52.212;5.496;2023-06-01T01:53:05;102521.47;;;10.82;100.00
69630;BME280;56857;52.212;5.496;2023-06-01T01:55:33;102517.41;;;10.78;100.00
69630;BME280;56857;52.212;5.496;2023-06-01T01:58:01;102514.75;;;10.78;100.00
69630;BME280;56857;52.212;5.496;2023-06-01T02:00:28;102523.66;;;10.77;100.00
69630;BME280;56857;52.212;5.496;2023-06-01T02:02:53;102518.59;;;10.74;100.00
69630;BME280;56857;52.212;5.496;2023-06-01T02:05:19;102511.75;;;10.72;100.00
69630;BME280;56857;52.212;5.496;2023-06-01T02:07:45;102512.47;;;10.74;100.00
69630;BME280;56857;52.212;5.496;2023-06-01T02:10:10;102504.75;;;10.71;100.00
69630;BME280;56857;52.212;5.496;2023-06-01T02:12:37;102496.69;;;10.72;100.00
69630;BME280;56857;52.212;5.496;2023-06-01T02:15:03;102502.56;;;10.76;100.00
69630;BME280;56857;52.212;5.496;2023-06-01T02:17:29;102500.03;;;10.74;100.00
69630;BME280;56857;52.212;5.496;2023-06-01T02:19:55;102503.41;;;10.76;100.00
69630;BME280;56857;52.212;5.496;2023-06-01T02:22:20;102497.84;;;10.79;100.00
69630;BME280;56857;52.212;5.496;2023-06-01T02:24:45;102501.06;;;10.83;100.00
69630;BME280;56857;52.212;5.496;2023-06-01T02:27:11;102505.66;;;10.81;100.00
69630;BME280;56857;52.212;5.496;2023-06-01T02:29:36;102507.16;;;10.74;100.00
69630;BME280;56857;52.212;5.496;2023-06-01T02:32:01;102508.50;;;10.68;100.00
69630;BME280;56857;52.212;5.496;2023-06-01T02:34:27;102506.94;;;10.65;100.00
69630;BME280;56857;52.212;5.496;2023-06-01T02:36:52;102503.03;;;10.60;100.00
69630;BME280;56857;52.212;5.496;2023-06-01T02:39:18;102494.09;;;10.61;100.00
69630;BME280;56857;52.212;5.496;2023-06-01T02:41:43;102497.72;;;10.60;100.00
69630;BME280;56857;52.212;5.496;2023-06-01T02:44:08;102497.97;;;10.57;100.00
69630;BME280;56857;52.212;5.496;2023-06-01T02:46:33;102503.13;;;10.58;100.00
69630;BME280;56857;52.212;5.496;2023-06-01T02:48:59;102507.59;;;10.58;100.00
69630;BME280;56857;52.212;5.496;2023-06-01T02:51:24;102504.22;;;10.56;100.00
69630;BME280;56857;52.212;5.496;2023-06-01T02:53:49;102500.88;;;10.54;100.00
69630;BME280;56857;52.212;5.496;2023-06-01T02:56:15;102497.97;;;10.57;100.00
69630;BME280;56857;52.212;5.496;2023-06-01T02:58:40;102510.41;;;10.56;100.00
69630;BME280;56857;52.212;5.496;2023-06-01T03:01:06;102501.25;;;10.49;100.00
69630;BME280;56857;52.212;5.496;2023-06-01T03:03:31;102506.31;;;10.52;100.00
69630;BME280;56857;52.212;5.496;2023-06-01T03:05:56;102499.72;;;10.47;100.00
69630;BME280;56857;52.212;5.496;2023-06-01T03:08:22;102495.25;;;10.47;100.00
69630;BME280;56857;52.212;5.496;2023-06-01T03:10:48;102497.78;;;10.49;100.00
69630;BME280;56857;52.212;5.496;2023-06-01T03:13:14;102491.78;;;10.47;100.00
69630;BME280;56857;52.212;5.496;2023-06-01T03:15:40;102496.94;;;10.48;100.00
69630;BME280;56857;52.212;5.496;2023-06-01T03:18:11;102495.13;;;10.49;100.00
69630;BME280;56857;52.212;5.496;2023-06-01T03:20:37;102487.63;;;10.54;100.00
69630;BME280;56857;52.212;5.496;2023-06-01T03:23:02;102497.97;;;10.57;100.00
69630;BME280;56857;52.212;5.496;2023-06-01T03:25:28;102486.19;;;10.50;100.00
69630;BME280;56857;52.212;5.496;2023-06-01T03:27:53;102492.34;;;10.50;100.00
69630;BME280;56857;52.212;5.496;2023-06-01T03:30:19;102494.03;;;10.51;100.00
69630;BME280;56857;52.212;5.496;2023-06-01T03:32:44;102493.63;;;10.56;100.00
69630;BME280;56857;52.212;5.496;2023-06-01T03:35:13;102492.41;;;10.60;100.00
69630;BME280;56857;52.212;5.496;2023-06-01T03:37:41;102495.66;;;10.63;100.00
69630;BME280;56857;52.212;5.496;2023-06-01T03:40:07;102477.94;;;10.64;100.00
69630;BME280;56857;52.212;5.496;2023-06-01T03:42:33;102479.47;;;10.66;100.00
69630;BME280;56857;52.212;5.496;2023-06-01T03:44:58;102477.53;;;10.68;100.00
69630;BME280;56857;52.212;5.496;2023-06-01T03:47:23;102481.88;;;10.70;100.00
69630;BME280;56857;52.212;5.496;2023-06-01T03:49:49;102478.75;;;10.64;100.00
69630;BME280;56857;52.212;5.496;2023-06-01T03:52:14;102485.75;;;10.65;100.00
69630;BME280;56857;52.212;5.496;2023-06-01T03:54:40;102476.00;;;10.66;100.00
69630;BME280;56857;52.212;5.496;2023-06-01T03:57:07;102483.94;;;10.66;100.00
69630;BME280;56857;52.212;5.496;2023-06-01T03:59:32;102484.63;;;10.68;100.00
69630;BME280;56857;52.212;5.496;2023-06-01T04:01:57;102478.91;;;10.63;100.00
69630;BME280;56857;52.212;5.496;2023-06-01T04:04:28;102482.06;;;10.57;100.00
69630;BME280;56857;52.212;5.496;2023-06-01T04:06:53;102482.19;;;10.55;100.00
69630;BME280;56857;52.212;5.496;2023-06-01T04:09:18;102483.75;;;10.58;100.00
69630;BME280;56857;52.212;5.496;2023-06-01T04:11:44;102487.63;;;10.54;100.00
69630;BME280;56857;52.212;5.496;2023-06-01T04:14:09;102482.69;;;10.49;100.00
69630;BME280;56857;52.212;5.496;2023-06-01T04:16:35;102482.25;;;10.44;100.00
69630;BME280;56857;52.212;5.496;2023-06-01T04:19:00;102481.28;;;10.45;100.00
69630;BME280;56857;52.212;5.496;2023-06-01T04:21:26;102486.34;;;10.48;100.00
69630;BME280;56857;52.212;5.496;2023-06-01T04:23:51;102482.94;;;10.46;100.00
69630;BME280;56857;52.212;5.496;2023-06-01T04:26:18;102479.34;;;10.47;100.00
69630;BME280;56857;52.212;5.496;2023-06-01T04:28:43;102480.88;;;10.50;100.00
69630;BME280;56857;52.212;5.496;2023-06-01T04:31:10;102486.78;;;10.53;100.00
69630;BME280;56857;52.212;5.496;2023-06-01T04:33:35;102484.59;;;10.58;100.00
69630;BME280;56857;52.212;5.496;2023-06-01T04:36:00;102486.28;;;10.59;100.00
69630;BME280;56857;52.212;5.496;2023-06-01T04:38:26;102480.97;;;10.59;100.00
69630;BME280;56857;52.212;5.496;2023-06-01T04:40:51;102493.00;;;10.63;100.00
69630;BME280;56857;52.212;5.496;2023-06-01T04:43:17;102488.84;;;10.71;100.00
69630;BME280;56857;52.212;5.496;2023-06-01T04:45:42;102487.63;;;10.75;100.00
69630;BME280;56857;52.212;5.496;2023-06-01T04:48:08;102485.09;;;10.73;100.00
69630;BME280;56857;52.212;5.496;2023-06-01T04:50:33;102489.88;;;10.79;100.00
69630;BME280;56857;52.212;5.496;2023-06-01T04:52:59;102484.91;;;10.86;100.00
69630;BME280;56857;52.212;5.496;2023-06-01T04:55:24;102477.66;;;10.88;100.00
69630;BME280;56857;52.212;5.496;2023-06-01T04:57:49;102487.03;;;10.92;100.00
69630;BME280;56857;52.212;5.496;2023-06-01T05:00:15;102488.59;;;10.95;100.00
69630;BME280;56857;52.212;5.496;2023-06-01T05:02:41;102489.53;;;10.94;100.00
69630;BME280;56857;52.212;5.496;2023-06-01T05:05:07;102490.00;;;10.99;100.00
69630;BME280;56857;52.212;5.496;2023-06-01T05:07:32;102496.84;;;11.01;100.00
69630;BME280;56857;52.212;5.496;2023-06-01T05:09:58;102491.03;;;11.07;100.00
69630;BME280;56857;52.212;5.496;2023-06-01T05:12:23;102486.75;;;11.16;100.00
69630;BME280;56857;52.212;5.496;2023-06-01T05:14:48;102492.22;;;11.24;100.00
69630;BME280;56857;52.212;5.496;2023-06-01T05:17:14;102488.16;;;11.20;100.00
69630;BME280;56857;52.212;5.496;2023-06-01T05:19:39;102496.69;;;11.24;100.00
69630;BME280;56857;52.212;5.496;2023-06-01T05:22:05;102500.31;;;11.23;100.00
69630;BME280;56857;52.212;5.496;2023-06-01T05:24:30;102497.41;;;11.26;100.00
69630;BME280;56857;52.212;5.496;2023-06-01T05:26:55;102499.91;;;11.27;100.00
69630;BME280;56857;52.212;5.496;2023-06-01T05:29:21;102497.66;;;11.23;100.00
69630;BME280;56857;52.212;5.496;2023-06-01T05:31:52;102498.63;;;11.22;100.00
69630;BME280;56857;52.212;5.496;2023-06-01T05:34:18;102500.06;;;11.26;100.00
69630;BME280;56857;52.212;5.496;2023-06-01T05:36:43;102499.06;;;11.27;100.00
69630;BME280;56857;52.212;5.496;2023-06-01T05:39:09;102503.94;;;11.22;100.00
69630;BME280;56857;52.212;5.496;2023-06-01T05:41:34;102503.94;;;11.22;100.00
69630;BME280;56857;52.212;5.496;2023-06-01T05:43:59;102508.84;;;11.26;100.00
69630;BME280;56857;52.212;5.496;2023-06-01T05:46:25;102507.88;;;11.27;100.00
69630;BME280;56857;52.212;5.496;2023-06-01T05:48:50;102509.97;;;11.24;100.00
69630;BME280;56857;52.212;5.496;2023-06-01T05:51:16;102514.53;;;11.22;100.00
69630;BME280;56857;52.212;5.496;2023-06-01T05:53:41;102511.91;;;11.22;100.00
69630;BME280;56857;52.212;5.496;2023-06-01T05:56:07;102509.50;;;11.19;100.00
69630;BME280;56857;52.212;5.496;2023-06-01T05:58:32;102517.09;;;11.23;100.00
69630;BME280;56857;52.212;5.496;2023-06-01T06:00:57;102509.28;;;11.31;100.00
69630;BME280;56857;52.212;5.496;2023-06-01T06:03:23;102508.75;;;11.37;100.00
69630;BME280;56857;52.212;5.496;2023-06-01T06:05:49;102506.97;;;11.38;100.00
69630;BME280;56857;52.212;5.496;2023-06-01T06:08:14;102508.78;;;11.47;100.00
69630;BME280;56857;52.212;5.496;2023-06-01T06:10:39;102499.28;;;11.45;100.00
69630;BME280;56857;52.212;5.496;2023-06-01T06:13:04;102503.19;;;11.50;100.00
69630;BME280;56857;52.212;5.496;2023-06-01T06:15:30;102497.09;;;11.59;100.00
69630;BME280;56857;52.212;5.496;2023-06-01T06:17:55;102496.72;;;11.74;100.00
69630;BME280;56857;52.212;5.496;2023-06-01T06:20:20;102499.97;;;11.87;100.00
69630;BME280;56857;52.212;5.496;2023-06-01T06:22:49;102500.84;;;12.07;100.00
69630;BME280;56857;52.212;5.496;2023-06-01T06:25:14;102504.66;;;12.24;100.00
69630;BME280;56857;52.212;5.496;2023-06-01T06:27:39;102508.84;;;12.36;100.00
69630;BME280;56857;52.212;5.496;2023-06-01T06:30:06;102500.03;;;12.45;100.00
69630;BME280;56857;52.212;5.496;2023-06-01T06:32:34;102503.09;;;12.50;100.00
69630;BME280;56857;52.212;5.496;2023-06-01T06:35:00;102509.50;;;12.58;100.00
69630;BME280;56857;52.212;5.496;2023-06-01T06:37:25;102488.66;;;12.53;100.00
69630;BME280;56857;52.212;5.496;2023-06-01T06:39:52;102498.31;;;12.54;100.00
69630;BME280;56857;52.212;5.496;2023-06-01T06:42:17;102491.63;;;12.40;100.00
69630;BME280;56857;52.212;5.496;2023-06-01T06:44:45;102495.28;;;12.39;100.00
69630;BME280;56857;52.212;5.496;2023-06-01T06:47:10;102497.66;;;12.42;100.00
69630;BME280;56857;52.212;5.496;2023-06-01T06:49:35;102494.56;;;12.47;100.00
69630;BME280;56857;52.212;5.496;2023-06-01T06:52:01;102500.59;;;12.49;100.00
69630;BME280;56857;52.212;5.496;2023-06-01T06:54:26;102500.31;;;12.52;100.00
69630;BME280;56857;52.212;5.496;2023-06-01T06:56:52;102505.47;;;12.63;100.00
69630;BME280;56857;52.212;5.496;2023-06-01T06:59:17;102504.50;;;12.64;100.00
69630;BME280;56857;52.212;5.496;2023-06-01T07:01:43;102502.69;;;12.55;100.00
69630;BME280;56857;52.212;5.496;2023-06-01T07:04:08;102513.88;;;12.59;100.00
69630;BME280;56857;52.212;5.496;2023-06-01T07:06:33;102515.25;;;12.63;100.00
69630;BME280;56857;52.212;5.496;2023-06-01T07:08:59;102513.56;;;12.81;100.00
69630;BME280;56857;52.212;5.496;2023-06-01T07:11:25;102507.75;;;12.95;100.00
69630;BME280;56857;52.212;5.496;2023-06-01T07:13:50;102513.91;;;13.15;100.00
69630;BME280;56857;52.212;5.496;2023-06-01T07:16:16;102521.44;;;13.30;100.00
69630;BME280;56857;52.212;5.496;2023-06-01T07:18:41;102505.44;;;13.30;100.00
69630;BME280;56857;52.212;5.496;2023-06-01T07:21:06;102513.09;;;13.42;100.00
69630;BME280;56857;52.212;5.496;2023-06-01T07:23:31;102509.22;;;13.37;100.00
69630;BME280;56857;52.212;5.496;2023-06-01T07:25:57;102505.31;;;13.21;100.00
69630;BME280;56857;52.212;5.496;2023-06-01T07:28:22;102506.56;;;13.17;100.00
69630;BME280;56857;52.212;5.496;2023-06-01T07:30:48;102513.06;;;13.25;100.00
69630;BME280;56857;52.212;5.496;2023-06-01T07:33:13;102511.59;;;13.40;100.00
69630;BME280;56857;52.212;5.496;2023-06-01T07:35:38;102506.94;;;13.42;100.00
69630;BME280;56857;52.212;5.496;2023-06-01T07:38:03;102507.47;;;13.45;100.00
69630;BME280;56857;52.212;5.496;2023-06-01T07:40:29;102498.75;;;13.53;100.00
69630;BME280;56857;52.212;5.496;2023-06-01T07:42:55;102500.25;;;13.65;100.00
69630;BME280;56857;52.212;5.496;2023-06-01T07:45:20;102497.75;;;13.82;100.00
69630;BME280;56857;52.212;5.496;2023-06-01T07:47:45;102499.75;;;13.98;100.00
69630;BME280;56857;52.212;5.496;2023-06-01T07:50:11;102501.75;;;14.13;100.00
69630;BME280;56857;52.212;5.496;2023-06-01T07:52:37;102502.56;;;14.14;100.00
69630;BME280;56857;52.212;5.496;2023-06-01T07:55:03;102495.78;;;14.02;100.00
69630;BME280;56857;52.212;5.496;2023-06-01T07:57:28;102502.41;;;13.98;100.00
69630;BME280;56857;52.212;5.496;2023-06-01T07:59:54;102494.34;;;14.07;100.00
69630;BME280;56857;52.212;5.496;2023-06-01T08:02:19;102495.88;;;14.10;100.00
69630;BME280;56857;52.212;5.496;2023-06-01T08:04:44;102493.75;;;14.13;100.00
69630;BME280;56857;52.212;5.496;2023-06-01T08:07:11;102495.09;;;14.18;100.00
69630;BME280;56857;52.212;5.496;2023-06-01T08:09:36;102494.56;;;14.14;100.00
69630;BME280;56857;52.212;5.496;2023-06-01T08:12:01;102489.41;;;14.12;100.00
69630;BME280;56857;52.212;5.496;2023-06-01T08:14:27;102487.09;;;14.18;100.00
69630;BME280;56857;52.212;5.496;2023-06-01T08:16:52;102486.34;;;14.25;100.00
69630;BME280;56857;52.212;5.496;2023-06-01T08:19:17;102485.13;;;14.55;100.00
69630;BME280;56857;52.212;5.496;2023-06-01T08:21:44;102490.38;;;14.47;100.00
69630;BME280;56857;52.212;5.496;2023-06-01T08:24:09;102492.81;;;14.58;100.00
69630;BME280;56857;52.212;5.496;2023-06-01T08:26:34;102495.56;;;14.67;100.00
69630;BME280;56857;52.212;5.496;2023-06-01T08:29:00;102489.09;;;14.77;100.00
69630;BME280;56857;52.212;5.496;2023-06-01T08:31:26;102489.53;;;14.65;100.00
69630;BME280;56857;52.212;5.496;2023-06-01T08:33:52;102481.09;;;14.51;100.00
69630;BME280;56857;52.212;5.496;2023-06-01T08:36:19;102480.09;;;14.52;100.00
69630;BME280;56857;52.212;5.496;2023-06-01T08:38:45;102486.84;;;14.65;100.00
69630;BME280;56857;52.212;5.496;2023-06-01T08:41:17;102473.59;;;14.81;100.00
69630;BME280;56857;52.212;5.496;2023-06-01T08:43:44;102472.56;;;14.74;100.00
69630;BME280;56857;52.212;5.496;2023-06-01T08:46:11;102478.13;;;14.80;100.00
69630;BME280;56857;52.212;5.496;2023-06-01T08:48:38;102474.19;;;14.93;100.00
69630;BME280;56857;52.212;5.496;2023-06-01T08:51:05;102481.50;;;15.17;100.00
69630;BME280;56857;52.212;5.496;2023-06-01T08:53:31;102474.44;;;15.42;100.00
69630;BME280;56857;52.212;5.496;2023-06-01T08:55:57;102474.59;;;15.83;100.00
69630;BME280;56857;52.212;5.496;2023-06-01T08:58:22;102468.09;;;16.10;100.00
69630;BME280;56857;52.212;5.496;2023-06-01T09:00:51;102475.44;;;16.16;100.00
69630;BME280;56857;52.212;5.496;2023-06-01T09:03:16;102480.13;;;16.14;100.00
69630;BME280;56857;52.212;5.496;2023-06-01T09:05:42;102472.59;;;16.09;100.00
69630;BME280;56857;52.212;5.496;2023-06-01T09:08:08;102467.22;;;15.85;100.00
69630;BME280;56857;52.212;5.496;2023-06-01T09:10:33;102474.69;;;15.73;100.00
69630;BME280;56857;52.212;5.496;2023-06-01T09:12:59;102463.28;;;15.55;100.00
69630;BME280;56857;52.212;5.496;2023-06-01T09:15:27;102465.78;;;15.56;100.00
69630;BME280;56857;52.212;5.496;2023-06-01T09:18:07;102465.19;;;15.79;100.00
69630;BME280;56857;52.212;5.496;2023-06-01T09:20:33;102466.56;;;16.07;100.00
69630;BME280;56857;52.212;5.496;2023-06-01T09:22:58;102467.91;;;16.19;100.00
69630;BME280;56857;52.212;5.496;2023-06-01T09:25:26;102465.59;;;16.41;100.00
69630;BME280;56857;52.212;5.496;2023-06-01T09:27:52;102465.06;;;16.54;100.00
69630;BME280;56857;52.212;5.496;2023-06-01T09:30:20;102467.41;;;16.49;100.00
69630;BME280;56857;52.212;5.496;2023-06-01T09:32:46;102460.56;;;16.46;100.00
69630;BME280;56857;52.212;5.496;2023-06-01T09:35:12;102457.72;;;16.31;100.00
69630;BME280;56857;52.212;5.496;2023-06-01T09:37:38;102449.34;;;16.59;100.00
69630;BME280;56857;52.212;5.496;2023-06-01T09:40:23;102446.34;;;16.54;100.00
69630;BME280;56857;52.212;5.496;2023-06-01T09:42:49;102445.09;;;16.97;100.00
69630;BME280;56857;52.212;5.496;2023-06-01T09:45:19;102441.97;;;17.25;100.00
69630;BME280;56857;52.212;5.496;2023-06-01T09:47:44;102436.31;;;17.51;100.00
69630;BME280;56857;52.212;5.496;2023-06-01T09:50:10;102443.06;;;18.01;100.00
69630;BME280;56857;52.212;5.496;2023-06-01T09:52:35;102439.09;;;19.38;100.00
69630;BME280;56857;52.212;5.496;2023-06-01T09:55:08;102440.78;;;19.76;100.00
69630;BME280;56857;52.212;5.496;2023-06-01T09:57:33;102433.75;;;19.75;100.00
69630;BME280;56857;52.212;5.496;2023-06-01T10:00:03;102432.91;;;19.38;100.00
69630;BME280;56857;52.212;5.496;2023-06-01T10:02:29;102436.38;;;19.68;100.00
69630;BME280;56857;52.212;5.496;2023-06-01T10:04:55;102440.59;;;19.26;100.00
69630;BME280;56857;52.212;5.496;2023-06-01T10:07:22;102441.97;;;18.63;100.00
69630;BME280;56857;52.212;5.496;2023-06-01T10:09:56;102447.81;;;18.51;100.00
69630;BME280;56857;52.212;5.496;2023-06-01T10:12:22;102436.41;;;18.12;100.00
69630;BME280;56857;52.212;5.496;2023-06-01T10:14:50;102429.00;;;18.37;100.00
69630;BME280;56857;52.212;5.496;2023-06-01T10:17:15;102423.63;;;18.37;100.00
69630;BME280;56857;52.212;5.496;2023-06-01T10:19:42;102425.63;;;18.72;100.00
69630;BME280;56857;52.212;5.496;2023-06-01T10:22:08;102430.16;;;19.16;100.00
69630;BME280;56857;52.212;5.496;2023-06-01T10:24:35;102424.72;;;20.53;99.77
69630;BME280;56857;52.212;5.496;2023-06-01T10:29:43;102427.16;;;19.99;97.16
69630;BME280;56857;52.212;5.496;2023-06-01T10:35:06;102430.34;;;20.93;97.44
69630;BME280;56857;52.212;5.496;2023-06-01T10:37:31;102429.16;;;21.57;90.93
69630;BME280;56857;52.212;5.496;2023-06-01T10:46:00;102418.84;;;22.01;88.31
69630;BME280;56857;52.212;5.496;2023-06-01T10:48:50;102412.16;;;21.63;89.44
69630;BME280;56857;52.212;5.496;2023-06-01T10:51:18;102414.84;;;21.09;88.32
69630;BME280;56857;52.212;5.496;2023-06-01T10:53:44;102426.28;;;20.69;89.09
69630;BME280;56857;52.212;5.496;2023-06-01T10:56:23;102422.16;;;20.80;90.59
69630;BME280;56857;52.212;5.496;2023-06-01T11:01:38;102421.31;;;20.73;93.29
69630;BME280;56857;52.212;5.496;2023-06-01T11:04:03;102412.84;;;21.30;89.52
69630;BME280;56857;52.212;5.496;2023-06-01T11:06:30;102425.91;;;22.02;88.10
69630;BME280;56857;52.212;5.496;2023-06-01T11:08:58;102414.75;;;23.09;82.21
69630;BME280;56857;52.212;5.496;2023-06-01T11:14:14;102417.72;;;22.81;78.72
69630;BME280;56857;52.212;5.496;2023-06-01T11:16:40;102404.22;;;22.81;75.47
69630;BME280;56857;52.212;5.496;2023-06-01T11:19:06;102409.66;;;21.75;82.18
69630;BME280;56857;52.212;5.496;2023-06-01T11:23:58;102413.22;;;22.09;81.20
69630;BME280;56857;52.212;5.496;2023-06-01T11:26:29;102410.34;;;22.37;78.96
69630;BME280;56857;52.212;5.496;2023-06-01T11:29:06;102416.97;;;22.61;76.41
69630;BME280;56857;52.212;5.496;2023-06-01T11:34:09;102414.09;;;22.16;81.64
69630;BME280;56857;52.212;5.496;2023-06-01T11:36:41;102416.34;;;21.24;85.62
69630;BME280;56857;52.212;5.496;2023-06-01T11:39:19;102404.28;;;20.66;90.80
69630;BME280;56857;52.212;5.496;2023-06-01T11:41:45;102408.94;;;20.01;93.16
69630;BME280;56857;52.212;5.496;2023-06-01T11:44:10;102407.41;;;19.91;96.27
69630;BME280;56857;52.212;5.496;2023-06-01T11:46:35;102400.38;;;19.90;97.69
69630;BME280;56857;52.212;5.496;2023-06-01T11:49:06;102402.88;;;19.34;100.00
69630;BME280;56857;52.212;5.496;2023-06-01T11:51:35;102406.81;;;18.87;100.00
69630;BME280;56857;52.212;5.496;2023-06-01T11:54:01;102403.16;;;18.50;100.00
69630;BME280;56857;52.212;5.496;2023-06-01T11:56:30;102406.25;;;18.47;100.00
69630;BME280;56857;52.212;5.496;2023-06-01T11:59:01;102405.38;;;18.32;100.00
69630;BME280;56857;52.212;5.496;2023-06-01T12:01:27;102415.16;;;17.87;100.00
69630;BME280;56857;52.212;5.496;2023-06-01T12:03:53;102407.31;;;17.23;100.00
69630;BME280;56857;52.212;5.496;2023-06-01T12:06:23;102414.00;;;16.80;100.00
69630;BME280;56857;52.212;5.496;2023-06-01T12:08:52;102410.25;;;16.33;100.00
69630;BME280;56857;52.212;5.496;2023-06-01T12:11:19;102412.22;;;16.23;100.00
69630;BME280;56857;52.212;5.496;2023-06-01T12:13:45;102411.72;;;16.19;100.00
69630;BME280;56857;52.212;5.496;2023-06-01T12:16:12;102415.44;;;16.02;100.00
69630;BME280;56857;52.212;5.496;2023-06-01T12:18:37;102415.34;;;15.61;100.00
69630;BME280;56857;52.212;5.496;2023-06-01T12:21:12;102417.41;;;15.75;100.00
69630;BME280;56857;52.212;5.496;2023-06-01T12:23:38;102418.94;;;16.03;100.00
69630;BME280;56857;52.212;5.496;2023-06-01T12:26:04;102416.59;;;15.99;100.00
69630;BME280;56857;52.212;5.496;2023-06-01T12:28:52;102413.59;;;15.86;100.00
69630;BME280;56857;52.212;5.496;2023-06-01T12:31:18;102421.25;;;15.81;100.00
69630;BME280;56857;52.212;5.496;2023-06-01T12:33:44;102417.56;;;15.74;100.00
69630;BME280;56857;52.212;5.496;2023-06-01T12:36:10;102419.91;;;15.69;100.00
69630;BME280;56857;52.212;5.496;2023-06-01T12:38:38;102419.88;;;15.61;100.00
69630;BME280;56857;52.212;5.496;2023-06-01T12:41:14;102425.88;;;15.55;100.00
69630;BME280;56857;52.212;5.496;2023-06-01T12:43:43;102424.16;;;15.45;100.00
69630;BME280;56857;52.212;5.496;2023-06-01T12:46:26;102423.13;;;15.38;100.00
69630;BME280;56857;52.212;5.496;2023-06-01T12:48:54;102420.31;;;15.40;100.00
69630;BME280;56857;52.212;5.496;2023-06-01T12:51:20;102422.97;;;15.40;100.00
69630;BME280;56857;52.212;5.496;2023-06-01T12:53:45;102427.97;;;15.35;100.00
69630;BME280;56857;52.212;5.496;2023-06-01T12:56:11;102427.66;;;15.46;100.00
69630;BME280;56857;52.212;5.496;2023-06-01T12:58:37;102417.97;;;15.37;100.00
69630;BME280;56857;52.212;5.496;2023-06-01T13:01:03;102418.94;;;15.27;100.00
69630;BME280;56857;52.212;5.496;2023-06-01T13:03:28;102412.09;;;15.41;100.00
69630;BME280;56857;52.212;5.496;2023-06-01T13:05:54;102413.94;;;15.41;100.00
69630;BME280;56857;52.212;5.496;2023-06-01T13:08:19;102412.47;;;15.46;100.00
69630;BME280;56857;52.212;5.496;2023-06-01T13:10:45;102417.44;;;15.41;100.00
69630;BME280;56857;52.212;5.496;2023-06-01T13:13:11;102408.00;;;15.55;100.00
69630;BME280;56857;52.212;5.496;2023-06-01T13:15:39;102402.28;;;15.50;100.00